sensor_id;sensor_type;location;lat;lon;timestamp;pressure;altitude;pressure_sealevel;temperature;humidity
21728;BME280;11026;50.560;17.852;2023-04-04T00:00:51;100540.38;;;-0.94;74.42
21728;BME280;11026;50.560;17.852;2023-04-04T00:03:18;100528.84;;;-1.07;74.64
21728;BME280;11026;50.560;17.852;2023-04-04T00:05:46;100530.63;;;-1.05;74.94
21728;BME280;11026;50.560;17.852;2023-04-04T00:08:14;100526.25;;;-1.07;75.00
21728;BME280;11026;50.560;17.852;2023-04-04T00:10:44;100522.75;;;-1.09;74.98
21728;BME280;11026;50.560;17.852;2023-04-04T00:13:11;100526.16;;;-1.12;75.06
21728;BME280;11026;50.560;17.852;2023-04-04T00:15:39;100522.69;;;-1.12;75.76
21728;BME280;11026;50.560;17.852;2023-04-04T00:18:06;100512.34;;;-1.11;75.46
21728;BME280;11026;50.560;17.852;2023-04-04T00:20:35;100518.28;;;-1.16;75.47
21728;BME280;11026;50.560;17.852;2023-04-04T00:23:03;100515.63;;;-1.19;75.92
21728;BME280;11026;50.560;17.852;2023-04-04T00:25:30;100517.41;;;-1.18;76.01
21728;BME280;11026;50.560;17.852;2023-04-04T00:27:58;100510.41;;;-1.22;76.09
21728;BME280;11026;50.560;17.852;2023-04-04T00:30:28;100519.69;;;-1.34;76.02
21728;BME280;11026;50.560;17.852;2023-04-04T00:32:56;100510.28;;;-1.29;76.11
21728;BME280;11026;50.560;17.852;2023-04-04T00:35:25;100508.53;;;-1.30;76.39
21728;BME280;11026;50.560;17.852;2023-04-04T00:37:54;100496.41;;;-1.29;76.46
21728;BME280;11026;50.560;17.852;2023-04-04T00:40:23;100501.59;;;-1.29;76.63
21728;BME280;11026;50.560;17.852;2023-04-04T00:42:50;100499.81;;;-1.33;76.69
21728;BME280;11026;50.560;17.852;2023-04-04T00:45:21;100505.72;;;-1.39;77.29
21728;BME280;11026;50.560;17.852;2023-04-04T00:47:50;100504.78;;;-1.44;77.31
21728;BME280;11026;50.560;17.852;2023-04-04T00:50:20;100503.91;;;-1.43;77.43
21728;BME280;11026;50.560;17.852;2023-04-04T00:52:48;100504.75;;;-1.45;77.30
21728;BME280;11026;50.560;17.852;2023-04-04T00:55:16;100499.66;;;-1.41;77.40
21728;BME280;11026;50.560;17.852;2023-04-04T00:57:43;100490.94;;;-1.43;77.44
21728;BME280;11026;50.560;17.852;2023-04-04T01:02:47;100496.03;;;-1.49;77.66
21728;BME280;11026;50.560;17.852;2023-04-04T01:05:14;100491.72;;;-1.49;77.89
21728;BME280;11026;50.560;17.852;2023-04-04T01:07:43;100486.50;;;-1.50;77.99
21728;BME280;11026;50.560;17.852;2023-04-04T01:10:10;100486.38;;;-1.55;78.26
21728;BME280;11026;50.560;17.852;2023-04-04T01:12:40;100481.31;;;-1.50;77.81
21728;BME280;11026;50.560;17.852;2023-04-04T01:15:08;100481.41;;;-1.45;77.84
21728;BME280;11026;50.560;17.852;2023-04-04T01:17:36;100490.91;;;-1.46;77.84
21728;BME280;11026;50.560;17.852;2023-04-04T01:20:09;100484.84;;;-1.46;77.89
21728;BME280;11026;50.560;17.852;2023-04-04T01:22:38;100485.72;;;-1.46;77.90
21728;BME280;11026;50.560;17.852;2023-04-04T01:25:09;100490.94;;;-1.43;78.24
21728;BME280;11026;50.560;17.852;2023-04-04T01:27:37;100479.88;;;-1.34;78.07
21728;BME280;11026;50.560;17.852;2023-04-04T01:30:05;100479.81;;;-1.37;78.38
21728;BME280;11026;50.560;17.852;2023-04-04T01:32:43;100478.97;;;-1.35;78.67
21728;BME280;11026;50.560;17.852;2023-04-04T01:38:13;100474.00;;;-1.26;78.83
21728;BME280;11026;50.560;17.852;2023-04-04T01:40:48;100479.25;;;-1.22;79.06
21728;BME280;11026;50.560;17.852;2023-04-04T01:43:21;100477.59;;;-1.17;78.66
21728;BME280;11026;50.560;17.852;2023-04-04T01:45:49;100475.84;;;-1.18;78.45
21728;BME280;11026;50.560;17.852;2023-04-04T01:48:23;100479.34;;;-1.16;78.74
21728;BME280;11026;50.560;17.852;2023-04-04T01:50:52;100486.25;;;-1.18;78.55
21728;BME280;11026;50.560;17.852;2023-04-04T01:53:20;100481.84;;;-1.21;78.63
21728;BME280;11026;50.560;17.852;2023-04-04T01:55:48;100482.88;;;-1.11;78.46
21728;BME280;11026;50.560;17.852;2023-04-04T01:58:16;100489.00;;;-1.09;78.20
21728;BME280;11026;50.560;17.852;2023-04-04T02:00:43;100489.00;;;-1.11;78.23
21728;BME280;11026;50.560;17.852;2023-04-04T02:03:16;100483.00;;;-1.07;77.50
21728;BME280;11026;50.560;17.852;2023-04-04T02:05:44;100484.75;;;-1.04;77.56
21728;BME280;11026;50.560;17.852;2023-04-04T02:08:12;100492.34;;;-1.15;77.91
21728;BME280;11026;50.560;17.852;2023-04-04T02:10:41;100485.50;;;-1.11;78.04
21728;BME280;11026;50.560;17.852;2023-04-04T02:13:09;100486.41;;;-1.09;77.95
21728;BME280;11026;50.560;17.852;2023-04-04T02:15:36;100488.16;;;-1.08;77.65
21728;BME280;11026;50.560;17.852;2023-04-04T02:18:06;100497.72;;;-1.06;77.31
21728;BME280;11026;50.560;17.852;2023-04-04T02:20:36;100494.19;;;-1.09;77.53
21728;BME280;11026;50.560;17.852;2023-04-04T02:23:03;100498.44;;;-1.13;77.80
21728;BME280;11026;50.560;17.852;2023-04-04T02:25:31;100493.28;;;-1.11;77.98
21728;BME280;11026;50.560;17.852;2023-04-04T02:27:59;100494.13;;;-1.14;77.87
21728;BME280;11026;50.560;17.852;2023-04-04T02:30:27;100499.44;;;-1.06;77.98
21728;BME280;11026;50.560;17.852;2023-04-04T02:32:57;100495.97;;;-1.07;78.07
21728;BME280;11026;50.560;17.852;2023-04-04T02:35:25;100503.63;;;-1.14;77.80
21728;BME280;11026;50.560;17.852;2023-04-04T02:37:53;100494.13;;;-1.12;78.06
21728;BME280;11026;50.560;17.852;2023-04-04T02:40:20;100500.13;;;-1.15;78.03
21728;BME280;11026;50.560;17.852;2023-04-04T02:42:48;100502.56;;;-1.26;78.11
21728;BME280;11026;50.560;17.852;2023-04-04T02:45:15;100501.75;;;-1.21;78.39
21728;BME280;11026;50.560;17.852;2023-04-04T02:47:49;100500.06;;;-1.19;78.75
21728;BME280;11026;50.560;17.852;2023-04-04T02:50:18;100508.63;;;-1.24;78.99
21728;BME280;11026;50.560;17.852;2023-04-04T02:52:51;100506.81;;;-1.29;79.14
21728;BME280;11026;50.560;17.852;2023-04-04T02:55:20;100512.88;;;-1.29;79.34
21728;BME280;11026;50.560;17.852;2023-04-04T02:57:52;100508.38;;;-1.37;79.39
21728;BME280;11026;50.560;17.852;2023-04-04T03:00:20;100516.81;;;-1.48;79.88
21728;BME280;11026;50.560;17.852;2023-04-04T03:02:54;100515.13;;;-1.45;80.20
21728;BME280;11026;50.560;17.852;2023-04-04T03:05:25;100517.81;;;-1.41;80.01
21728;BME280;11026;50.560;17.852;2023-04-04T03:07:54;100519.53;;;-1.41;80.16
21728;BME280;11026;50.560;17.852;2023-04-04T03:10:27;100522.22;;;-1.38;80.32
21728;BME280;11026;50.560;17.852;2023-04-04T03:12:59;100511.81;;;-1.38;80.60
21728;BME280;11026;50.560;17.852;2023-04-04T03:15:28;100516.09;;;-1.39;80.80
21728;BME280;11026;50.560;17.852;2023-04-04T03:17:56;100517.00;;;-1.38;80.91
21728;BME280;11026;50.560;17.852;2023-04-04T03:20:25;100516.97;;;-1.40;80.94
21728;BME280;11026;50.560;17.852;2023-04-04T03:22:53;100513.50;;;-1.40;80.93
21728;BME280;11026;50.560;17.852;2023-04-04T03:25:20;100509.97;;;-1.44;81.01
21728;BME280;11026;50.560;17.852;2023-04-04T03:27:49;100507.91;;;-1.59;81.17
21728;BME280;11026;50.560;17.852;2023-04-04T03:30:16;100514.78;;;-1.62;81.42
21728;BME280;11026;50.560;17.852;2023-04-04T03:32:44;100510.31;;;-1.69;81.75
21728;BME280;11026;50.560;17.852;2023-04-04T03:35:13;100510.22;;;-1.74;82.10
21728;BME280;11026;50.560;17.852;2023-04-04T03:37:40;100513.63;;;-1.77;82.21
21728;BME280;11026;50.560;17.852;2023-04-04T03:40:11;100516.13;;;-1.80;82.55
21728;BME280;11026;50.560;17.852;2023-04-04T03:42:38;100514.22;;;-1.90;82.60
21728;BME280;11026;50.560;17.852;2023-04-04T03:45:06;100508.94;;;-1.93;83.15
21728;BME280;11026;50.560;17.852;2023-04-04T03:47:34;100508.88;;;-1.96;83.47
21728;BME280;11026;50.560;17.852;2023-04-04T03:50:01;100513.09;;;-2.00;83.78
21728;BME280;11026;50.560;17.852;2023-04-04T03:52:30;100505.22;;;-2.04;83.84
21728;BME280;11026;50.560;17.852;2023-04-04T03:54:59;100499.09;;;-2.08;84.29
21728;BME280;11026;50.560;17.852;2023-04-04T03:57:27;100500.75;;;-2.11;84.40
21728;BME280;11026;50.560;17.852;2023-04-04T03:59:54;100499.91;;;-2.10;84.77
21728;BME280;11026;50.560;17.852;2023-04-04T04:02:21;100495.56;;;-2.11;84.73
21728;BME280;11026;50.560;17.852;2023-04-04T04:04:49;100492.97;;;-2.11;84.86
21728;BME280;11026;50.560;17.852;2023-04-04T04:07:17;100490.19;;;-2.19;85.04
21728;BME280;11026;50.560;17.852;2023-04-04T04:09:44;100485.97;;;-2.15;84.97
21728;BME280;11026;50.560;17.852;2023-04-04T04:12:14;100496.41;;;-2.12;84.58
21728;BME280;11026;50.560;17.852;2023-04-04T04:14:42;100492.16;;;-2.09;84.57
21728;BME280;11026;50.560;17.852;2023-04-04T04:17:10;100496.59;;;-2.03;84.50
21728;BME280;11026;50.560;17.852;2023-04-04T04:19:37;100497.44;;;-2.04;84.50
21728;BME280;11026;50.560;17.852;2023-04-04T04:22:05;100499.97;;;-2.07;84.57
21728;BME280;11026;50.560;17.852;2023-04-04T04:24:32;100497.69;;;-1.93;84.60
21728;BME280;11026;50.560;17.852;2023-04-04T04:27:00;100497.72;;;-1.92;84.30
21728;BME280;11026;50.560;17.852;2023-04-04T04:29:27;100497.81;;;-1.87;84.14
21728;BME280;11026;50.560;17.852;2023-04-04T04:31:56;100498.94;;;-1.76;83.70
21728;BME280;11026;50.560;17.852;2023-04-04T04:34:31;100497.19;;;-1.76;83.53
21728;BME280;11026;50.560;17.852;2023-04-04T04:36:59;100501.66;;;-1.70;82.91
21728;BME280;11026;50.560;17.852;2023-04-04T04:39:28;100498.16;;;-1.70;82.54
21728;BME280;11026;50.560;17.852;2023-04-04T04:41:55;100502.56;;;-1.66;82.19
21728;BME280;11026;50.560;17.852;2023-04-04T04:44:29;100495.84;;;-1.58;82.38
21728;BME280;11026;50.560;17.852;2023-04-04T04:46:56;100496.81;;;-1.52;82.39
21728;BME280;11026;50.560;17.852;2023-04-04T04:49:25;100490.78;;;-1.51;82.27
21728;BME280;11026;50.560;17.852;2023-04-04T04:51:53;100496.03;;;-1.49;82.26
21728;BME280;11026;50.560;17.852;2023-04-04T04:54:26;100492.66;;;-1.45;81.87
21728;BME280;11026;50.560;17.852;2023-04-04T04:56:54;100492.81;;;-1.36;81.52
21728;BME280;11026;50.560;17.852;2023-04-04T04:59:21;100491.16;;;-1.34;81.36
21728;BME280;11026;50.560;17.852;2023-04-04T05:01:48;100490.34;;;-1.30;81.20
21728;BME280;11026;50.560;17.852;2023-04-04T05:04:16;100486.03;;;-1.29;81.04
21728;BME280;11026;50.560;17.852;2023-04-04T05:06:43;100482.66;;;-1.24;80.81
21728;BME280;11026;50.560;17.852;2023-04-04T05:09:11;100481.00;;;-1.21;80.52
21728;BME280;11026;50.560;17.852;2023-04-04T05:11:38;100488.94;;;-1.12;80.02
21728;BME280;11026;50.560;17.852;2023-04-04T05:14:06;100484.59;;;-1.13;80.00
21728;BME280;11026;50.560;17.852;2023-04-04T05:16:34;100489.00;;;-1.09;79.89
21728;BME280;11026;50.560;17.852;2023-04-04T05:19:03;100491.59;;;-1.09;80.00
21728;BME280;11026;50.560;17.852;2023-04-04T05:21:30;100491.81;;;-0.97;79.73
21728;BME280;11026;50.560;17.852;2023-04-04T05:23:58;100484.16;;;-0.91;79.15
21728;BME280;11026;50.560;17.852;2023-04-04T05:26:27;100485.09;;;-0.86;78.71
21728;BME280;11026;50.560;17.852;2023-04-04T05:28:55;100491.97;;;-0.88;78.98
21728;BME280;11026;50.560;17.852;2023-04-04T05:31:25;100492.03;;;-0.85;78.92
21728;BME280;11026;50.560;17.852;2023-04-04T05:33:52;100488.50;;;-0.90;78.77
21728;BME280;11026;50.560;17.852;2023-04-04T05:36:20;100498.22;;;-0.78;78.20
21728;BME280;11026;50.560;17.852;2023-04-04T05:38:48;100494.66;;;-0.83;77.94
21728;BME280;11026;50.560;17.852;2023-04-04T05:41:17;100492.19;;;-0.76;77.23
21728;BME280;11026;50.560;17.852;2023-04-04T05:43:45;100503.56;;;-0.70;76.92
21728;BME280;11026;50.560;17.852;2023-04-04T05:46:12;100498.16;;;-0.80;76.78
21728;BME280;11026;50.560;17.852;2023-04-04T05:48:40;100502.56;;;-0.76;76.57
21728;BME280;11026;50.560;17.852;2023-04-04T05:51:07;100509.69;;;-0.65;76.34
21728;BME280;11026;50.560;17.852;2023-04-04T05:53:37;100509.81;;;-0.59;75.68
21728;BME280;11026;50.560;17.852;2023-04-04T05:56:23;100514.16;;;-0.58;75.63
21728;BME280;11026;50.560;17.852;2023-04-04T05:58:51;100509.91;;;-0.52;75.08
21728;BME280;11026;50.560;17.852;2023-04-04T06:01:19;100508.09;;;-0.57;74.24
21728;BME280;11026;50.560;17.852;2023-04-04T06:03:46;100502.28;;;-0.42;73.76
21728;BME280;11026;50.560;17.852;2023-04-04T06:06:14;100504.09;;;-0.37;72.98
21728;BME280;11026;50.560;17.852;2023-04-04T06:08:42;100512.81;;;-0.33;72.31
21728;BME280;11026;50.560;17.852;2023-04-04T06:11:16;100516.28;;;-0.33;72.00
21728;BME280;11026;50.560;17.852;2023-04-04T06:13:43;100507.75;;;-0.24;71.86
21728;BME280;11026;50.560;17.852;2023-04-04T06:16:11;100507.78;;;-0.21;71.67
21728;BME280;11026;50.560;17.852;2023-04-04T06:18:38;100512.34;;;-0.08;71.33
21728;BME280;11026;50.560;17.852;2023-04-04T06:21:06;100509.81;;;-0.02;70.50
21728;BME280;11026;50.560;17.852;2023-04-04T06:23:35;100509.91;;;0.05;68.54
21728;BME280;11026;50.560;17.852;2023-04-04T06:26:04;100511.63;;;0.03;67.47
21728;BME280;11026;50.560;17.852;2023-04-04T06:28:32;100501.22;;;0.03;66.89
21728;BME280;11026;50.560;17.852;2023-04-04T06:30:59;100501.25;;;0.04;67.19
21728;BME280;11026;50.560;17.852;2023-04-04T06:33:27;100499.53;;;0.05;66.08
21728;BME280;11026;50.560;17.852;2023-04-04T06:35:55;100495.41;;;0.20;64.31
21728;BME280;11026;50.560;17.852;2023-04-04T06:38:22;100495.41;;;0.20;63.92
21728;BME280;11026;50.560;17.852;2023-04-04T06:40:50;100499.13;;;0.41;62.26
21728;BME280;11026;50.560;17.852;2023-04-04T06:43:18;100490.50;;;0.46;61.13
21728;BME280;11026;50.560;17.852;2023-04-04T06:45:45;100502.59;;;0.40;60.16
21728;BME280;11026;50.560;17.852;2023-04-04T06:48:13;100497.38;;;0.40;59.96
21728;BME280;11026;50.560;17.852;2023-04-04T06:50:40;100496.38;;;0.30;60.51
21728;BME280;11026;50.560;17.852;2023-04-04T06:53:08;100498.44;;;0.56;60.13
21728;BME280;11026;50.560;17.852;2023-04-04T06:55:35;100488.91;;;0.58;58.88
21728;BME280;11026;50.560;17.852;2023-04-04T06:58:02;100486.25;;;0.53;58.73
21728;BME280;11026;50.560;17.852;2023-04-04T07:00:30;100495.56;;;0.33;58.54
21728;BME280;11026;50.560;17.852;2023-04-04T07:02:58;100495.50;;;0.30;59.90
21728;BME280;11026;50.560;17.852;2023-04-04T07:05:26;100491.28;;;0.38;59.89
21728;BME280;11026;50.560;17.852;2023-04-04T07:07:54;100498.16;;;0.33;58.73
21728;BME280;11026;50.560;17.852;2023-04-04T07:10:23;100497.50;;;0.49;58.36
21728;BME280;11026;50.560;17.852;2023-04-04T07:12:51;100498.34;;;0.49;58.20
21728;BME280;11026;50.560;17.852;2023-04-04T07:15:18;100499.22;;;0.50;58.02
21728;BME280;11026;50.560;17.852;2023-04-04T07:17:46;100490.50;;;0.45;57.86
21728;BME280;11026;50.560;17.852;2023-04-04T07:20:13;100492.19;;;0.43;57.59
21728;BME280;11026;50.560;17.852;2023-04-04T07:22:43;100493.00;;;0.36;57.04
21728;BME280;11026;50.560;17.852;2023-04-04T07:25:10;100495.56;;;0.33;57.98
21728;BME280;11026;50.560;17.852;2023-04-04T07:27:41;100495.66;;;0.42;58.01
21728;BME280;11026;50.560;17.852;2023-04-04T07:30:08;100491.22;;;0.35;57.74
21728;BME280;11026;50.560;17.852;2023-04-04T07:32:36;100501.06;;;0.57;57.69
21728;BME280;11026;50.560;17.852;2023-04-04T07:35:05;100495.06;;;0.66;57.42
21728;BME280;11026;50.560;17.852;2023-04-04T07:37:35;100493.38;;;0.69;56.97
21728;BME280;11026;50.560;17.852;2023-04-04T07:40:05;100496.00;;;0.69;57.03
21728;BME280;11026;50.560;17.852;2023-04-04T07:42:43;100502.00;;;0.65;56.60
21728;BME280;11026;50.560;17.852;2023-04-04T07:45:11;100497.84;;;0.80;56.49
21728;BME280;11026;50.560;17.852;2023-04-04T07:47:43;100506.53;;;0.80;55.84
21728;BME280;11026;50.560;17.852;2023-04-04T07:50:17;100495.28;;;0.86;56.31
21728;BME280;11026;50.560;17.852;2023-04-04T07:52:48;100503.22;;;0.96;56.73
21728;BME280;11026;50.560;17.852;2023-04-04T07:55:18;100502.38;;;0.97;55.73
21728;BME280;11026;50.560;17.852;2023-04-04T07:57:48;100513.78;;;1.07;56.75
21728;BME280;11026;50.560;17.852;2023-04-04T08:00:16;100503.50;;;1.26;56.68
21728;BME280;11026;50.560;17.852;2023-04-04T08:02:52;100503.47;;;1.19;56.50
21728;BME280;11026;50.560;17.852;2023-04-04T08:05:20;100500.81;;;1.18;56.04
21728;BME280;11026;50.560;17.852;2023-04-04T08:07:47;100498.28;;;1.26;55.87
21728;BME280;11026;50.560;17.852;2023-04-04T08:10:17;100494.94;;;1.37;56.46
21728;BME280;11026;50.560;17.852;2023-04-04T08:12:45;100493.16;;;1.32;55.65
21728;BME280;11026;50.560;17.852;2023-04-04T08:15:12;100491.47;;;1.40;55.63
21728;BME280;11026;50.560;17.852;2023-04-04T08:17:39;100494.84;;;1.30;55.02
21728;BME280;11026;50.560;17.852;2023-04-04T08:20:15;100491.47;;;1.40;55.34
21728;BME280;11026;50.560;17.852;2023-04-04T08:22:44;100495.06;;;1.51;55.13
21728;BME280;11026;50.560;17.852;2023-04-04T08:25:17;100497.81;;;1.72;55.46
21728;BME280;11026;50.560;17.852;2023-04-04T08:27:44;100488.25;;;1.71;54.43
21728;BME280;11026;50.560;17.852;2023-04-04T08:30:13;100488.28;;;1.78;54.67
21728;BME280;11026;50.560;17.852;2023-04-04T08:32:41;100485.81;;;2.01;54.65
21728;BME280;11026;50.560;17.852;2023-04-04T08:35:11;100493.69;;;2.02;54.84
21728;BME280;11026;50.560;17.852;2023-04-04T08:37:45;100489.31;;;1.98;55.36
21728;BME280;11026;50.560;17.852;2023-04-04T08:40:13;100497.09;;;1.90;55.22
21728;BME280;11026;50.560;17.852;2023-04-04T08:42:41;100487.56;;;2.02;54.58
21728;BME280;11026;50.560;17.852;2023-04-04T08:45:16;100496.28;;;2.02;54.87
21728;BME280;11026;50.560;17.852;2023-04-04T08:47:45;100492.84;;;2.06;54.72
21728;BME280;11026;50.560;17.852;2023-04-04T08:50:16;100491.84;;;1.89;54.73
21728;BME280;11026;50.560;17.852;2023-04-04T08:52:57;100488.44;;;1.99;55.66
21728;BME280;11026;50.560;17.852;2023-04-04T08:55:27;100489.28;;;1.96;54.84
21728;BME280;11026;50.560;17.852;2023-04-04T08:57:55;100488.44;;;1.99;55.12
21728;BME280;11026;50.560;17.852;2023-04-04T09:00:23;100485.88;;;2.07;54.69
21728;BME280;11026;50.560;17.852;2023-04-04T09:03:08;100486.72;;;2.06;54.38
21728;BME280;11026;50.560;17.852;2023-04-04T09:05:40;100477.22;;;2.20;53.86
21728;BME280;11026;50.560;17.852;2023-04-04T09:08:10;100483.38;;;2.30;53.97
21728;BME280;11026;50.560;17.852;2023-04-04T09:10:40;100484.22;;;2.24;54.59
21728;BME280;11026;50.560;17.852;2023-04-04T09:13:10;100481.59;;;2.26;53.74
21728;BME280;11026;50.560;17.852;2023-04-04T09:15:46;100485.19;;;2.46;54.36
21728;BME280;11026;50.560;17.852;2023-04-04T09:18:14;100481.75;;;2.59;52.76
21728;BME280;11026;50.560;17.852;2023-04-04T09:20:43;100479.19;;;2.71;52.83
21728;BME280;11026;50.560;17.852;2023-04-04T09:23:15;100471.41;;;3.02;52.56
21728;BME280;11026;50.560;17.852;2023-04-04T09:25:51;100481.00;;;3.02;52.45
21728;BME280;11026;50.560;17.852;2023-04-04T09:28:30;100474.03;;;2.94;50.69
21728;BME280;11026;50.560;17.852;2023-04-04T09:31:03;100475.78;;;3.18;52.32
21728;BME280;11026;50.560;17.852;2023-04-04T09:33:33;100473.19;;;3.28;51.05
21728;BME280;11026;50.560;17.852;2023-04-04T09:36:09;100470.56;;;3.32;50.76
21728;BME280;11026;50.560;17.852;2023-04-04T09:38:40;100479.28;;;3.05;50.49
21728;BME280;11026;50.560;17.852;2023-04-04T09:41:15;100474.94;;;3.13;50.34
21728;BME280;11026;50.560;17.852;2023-04-04T09:43:45;100481.00;;;3.08;51.08
21728;BME280;11026;50.560;17.852;2023-04-04T09:46:18;100481.88;;;3.11;50.52
21728;BME280;11026;50.560;17.852;2023-04-04T09:48:49;100491.50;;;3.26;50.45
21728;BME280;11026;50.560;17.852;2023-04-04T09:51:21;100482.78;;;3.39;50.50
21728;BME280;11026;50.560;17.852;2023-04-04T09:53:49;100485.41;;;3.47;50.47
21728;BME280;11026;50.560;17.852;2023-04-04T09:56:18;100483.66;;;3.34;50.38
21728;BME280;11026;50.560;17.852;2023-04-04T09:58:50;100481.03;;;3.26;50.65
21728;BME280;11026;50.560;17.852;2023-04-04T10:01:29;100479.31;;;3.25;51.04
21728;BME280;11026;50.560;17.852;2023-04-04T10:03:57;100481.00;;;2.99;50.05
21728;BME280;11026;50.560;17.852;2023-04-04T10:06:25;100478.31;;;2.69;49.32
21728;BME280;11026;50.560;17.852;2023-04-04T10:08:52;100470.47;;;2.77;50.44
21728;BME280;11026;50.560;17.852;2023-04-04T10:11:31;100467.91;;;2.82;50.37
21728;BME280;11026;50.560;17.852;2023-04-04T10:13:59;100474.00;;;2.91;50.26
21728;BME280;11026;50.560;17.852;2023-04-04T10:16:33;100466.16;;;2.96;50.57
21728;BME280;11026;50.560;17.852;2023-04-04T10:19:06;100449.66;;;3.17;50.87
21728;BME280;11026;50.560;17.852;2023-04-04T10:21:34;100455.75;;;3.17;51.25
21728;BME280;11026;50.560;17.852;2023-04-04T10:24:03;100453.13;;;3.02;51.12
21728;BME280;11026;50.560;17.852;2023-04-04T10:26:36;100452.22;;;3.00;50.79
21728;BME280;11026;50.560;17.852;2023-04-04T10:29:03;100459.19;;;2.92;52.36
21728;BME280;11026;50.560;17.852;2023-04-04T10:31:32;100451.34;;;2.78;51.82
21728;BME280;11026;50.560;17.852;2023-04-04T10:34:27;100460.06;;;2.83;52.38
21728;BME280;11026;50.560;17.852;2023-04-04T10:37:24;100464.44;;;2.95;52.26
21728;BME280;11026;50.560;17.852;2023-04-04T10:40:16;100451.38;;;3.03;50.02
21728;BME280;11026;50.560;17.852;2023-04-04T10:42:49;100454.88;;;3.17;49.80
21728;BME280;11026;50.560;17.852;2023-04-04T10:45:17;100453.13;;;3.47;50.27
21728;BME280;11026;50.560;17.852;2023-04-04T10:47:47;100453.13;;;3.77;49.82
21728;BME280;11026;50.560;17.852;2023-04-04T10:50:19;100445.22;;;3.86;48.89
21728;BME280;11026;50.560;17.852;2023-04-04T10:52:46;100453.09;;;3.71;49.67
21728;BME280;11026;50.560;17.852;2023-04-04T10:55:14;100452.25;;;3.55;48.86
21728;BME280;11026;50.560;17.852;2023-04-04T10:57:49;100455.75;;;3.51;49.48
21728;BME280;11026;50.560;17.852;2023-04-04T11:00:19;100452.25;;;3.43;49.57
21728;BME280;11026;50.560;17.852;2023-04-04T11:02:59;100457.47;;;3.28;50.03
21728;BME280;11026;50.560;17.852;2023-04-04T11:05:33;100446.16;;;3.33;49.93
21728;BME280;11026;50.560;17.852;2023-04-04T11:08:04;100449.63;;;3.32;50.44
21728;BME280;11026;50.560;17.852;2023-04-04T11:10:41;100445.28;;;3.39;51.05
21728;BME280;11026;50.560;17.852;2023-04-04T11:13:19;100445.28;;;3.39;51.08
21728;BME280;11026;50.560;17.852;2023-04-04T11:16:10;100442.66;;;3.28;51.44
21728;BME280;11026;50.560;17.852;2023-04-04T11:21:20;100429.63;;;3.33;50.48
21728;BME280;11026;50.560;17.852;2023-04-04T11:29:01;100430.47;;;3.41;48.47
21728;BME280;11026;50.560;17.852;2023-04-04T11:31:42;100424.38;;;3.60;48.22
21728;BME280;11026;50.560;17.852;2023-04-04T11:34:13;100433.06;;;3.76;49.24
21728;BME280;11026;50.560;17.852;2023-04-04T11:39:24;100434.78;;;3.71;48.19
21728;BME280;11026;50.560;17.852;2023-04-04T11:42:06;100428.66;;;3.80;47.85
21728;BME280;11026;50.560;17.852;2023-04-04T11:47:10;100434.78;;;3.76;48.48
21728;BME280;11026;50.560;17.852;2023-04-04T11:49:41;100441.81;;;3.64;49.16
21728;BME280;11026;50.560;17.852;2023-04-04T11:52:11;100435.72;;;3.29;49.39
21728;BME280;11026;50.560;17.852;2023-04-04T11:54:40;100427.00;;;3.30;50.03
21728;BME280;11026;50.560;17.852;2023-04-04T11:57:16;100433.09;;;3.29;49.83
21728;BME280;11026;50.560;17.852;2023-04-04T11:59:46;100430.47;;;3.16;49.53
21728;BME280;11026;50.560;17.852;2023-04-04T12:02:24;100426.09;;;3.15;50.07
21728;BME280;11026;50.560;17.852;2023-04-04T12:04:58;100427.84;;;3.16;50.57
21728;BME280;11026;50.560;17.852;2023-04-04T12:07:30;100433.09;;;3.41;52.63
21728;BME280;11026;50.560;17.852;2023-04-04T12:09:57;100433.09;;;3.49;52.25
21728;BME280;11026;50.560;17.852;2023-04-04T12:12:25;100433.06;;;3.56;49.63
21728;BME280;11026;50.560;17.852;2023-04-04T12:14:55;100426.13;;;3.49;50.19
21728;BME280;11026;50.560;17.852;2023-04-04T12:17:40;100438.31;;;3.32;50.29
21728;BME280;11026;50.560;17.852;2023-04-04T12:20:09;100440.06;;;3.27;50.48
21728;BME280;11026;50.560;17.852;2023-04-04T12:22:37;100438.31;;;3.26;50.29
21728;BME280;11026;50.560;17.852;2023-04-04T12:25:06;100431.34;;;3.46;52.04
21728;BME280;11026;50.560;17.852;2023-04-04T12:27:34;100422.59;;;3.58;49.89
21728;BME280;11026;50.560;17.852;2023-04-04T12:30:03;100415.59;;;3.74;49.06
21728;BME280;11026;50.560;17.852;2023-04-04T12:32:34;100426.03;;;3.89;49.71
21728;BME280;11026;50.560;17.852;2023-04-04T12:35:03;100422.53;;;3.93;49.65
21728;BME280;11026;50.560;17.852;2023-04-04T12:37:32;100424.25;;;3.95;49.53
21728;BME280;11026;50.560;17.852;2023-04-04T12:40:00;100427.81;;;3.78;48.30
21728;BME280;11026;50.560;17.852;2023-04-04T12:42:30;100424.31;;;3.71;48.57
21728;BME280;11026;50.560;17.852;2023-04-04T12:45:00;100425.22;;;3.65;49.10
21728;BME280;11026;50.560;17.852;2023-04-04T12:47:30;100424.34;;;3.54;49.88
21728;BME280;11026;50.560;17.852;2023-04-04T12:49:58;100423.47;;;3.55;49.58
21728;BME280;11026;50.560;17.852;2023-04-04T12:52:27;100427.84;;;3.65;50.45
21728;BME280;11026;50.560;17.852;2023-04-04T12:55:06;100428.69;;;3.84;49.36
21728;BME280;11026;50.560;17.852;2023-04-04T12:57:38;100424.19;;;4.25;48.28
21728;BME280;11026;50.560;17.852;2023-04-04T13:00:06;100410.06;;;4.50;48.05
21728;BME280;11026;50.560;17.852;2023-04-04T13:02:36;100417.03;;;4.57;47.17
21728;BME280;11026;50.560;17.852;2023-04-04T13:05:04;100411.81;;;4.56;46.71
21728;BME280;11026;50.560;17.852;2023-04-04T13:07:35;100417.88;;;4.61;47.71
21728;BME280;11026;50.560;17.852;2023-04-04T13:10:14;100413.44;;;4.71;46.68
21728;BME280;11026;50.560;17.852;2023-04-04T13:15:50;100412.56;;;4.76;46.50
21728;BME280;11026;50.560;17.852;2023-04-04T13:18:20;100410.00;;;4.62;47.10
21728;BME280;11026;50.560;17.852;2023-04-04T13:20:51;100417.94;;;4.53;47.07